createdAt,value
2023-04-20T00:01:06.989Z,8.02
2023-04-20T00:03:35.456Z,4.60
2023-04-20T00:06:02.235Z,3.78
2023-04-20T00:08:28.976Z,3.95
2023-04-20T00:10:55.797Z,5.18
2023-04-20T00:13:22.555Z,6.13
2023-04-20T00:15:49.267Z,4.50
2023-04-20T00:18:16.666Z,4.47
2023-04-20T00:20:43.334Z,6.68
2023-04-20T00:23:10.042Z,13.40
2023-04-20T00:25:36.801Z,5.30
2023-04-20T00:28:03.665Z,6.43
2023-04-20T00:30:30.444Z,5.95
2023-04-20T00:32:57.328Z,7.25
2023-04-20T00:35:24.069Z,6.18
2023-04-20T00:37:51.138Z,7.32
2023-04-20T00:40:17.824Z,4.00
2023-04-20T00:42:44.577Z,3.85
2023-04-20T00:45:11.521Z,4.45
2023-04-20T00:47:38.751Z,3.33
2023-04-20T00:50:06.816Z,9.52
2023-04-20T00:52:33.806Z,5.75
2023-04-20T00:55:00.993Z,4.82
2023-04-20T00:57:28.295Z,4.50
2023-04-20T00:59:55.004Z,5.00
2023-04-20T01:02:22.117Z,3.38
2023-04-20T01:04:48.881Z,7.03
2023-04-20T01:07:15.936Z,9.15
2023-04-20T01:09:43.052Z,8.05
2023-04-20T01:12:10.456Z,5.05
2023-04-20T01:14:37.412Z,3.38
2023-04-20T01:17:04.591Z,6.55
2023-04-20T01:19:32.099Z,7.25
2023-04-20T01:21:58.849Z,8.75
2023-04-20T01:24:27.676Z,3.83
2023-04-20T01:26:54.486Z,8.38
2023-04-20T01:29:21.319Z,5.65
2023-04-20T01:31:48.155Z,3.67
2023-04-20T01:34:15.368Z,6.95
2023-04-20T01:36:42.030Z,7.32
2023-04-20T01:39:09.323Z,4.30
2023-04-20T01:41:36.276Z,5.93
2023-04-20T01:44:03.036Z,5.35
2023-04-20T01:46:29.776Z,5.90
2023-04-20T01:48:56.447Z,9.32
2023-04-20T01:51:23.270Z,5.53
2023-04-20T01:53:49.949Z,6.15
2023-04-20T01:56:16.596Z,7.28
2023-04-20T01:58:43.327Z,5.95
2023-04-20T02:01:10.627Z,5.18
2023-04-20T02:03:37.474Z,9.20
2023-04-20T02:06:04.874Z,6.60
2023-04-20T02:08:32.734Z,9.73
2023-04-20T02:10:59.451Z,4.60
2023-04-20T02:13:26.443Z,8.27
2023-04-20T02:15:53.451Z,6.78
2023-04-20T02:18:20.206Z,5.68
2023-04-20T02:20:46.962Z,5.15
2023-04-20T02:23:13.686Z,10.15
2023-04-20T02:25:40.352Z,6.65
2023-04-20T02:28:07.149Z,8.02
2023-04-20T02:30:33.812Z,6.85
2023-04-20T02:33:00.750Z,4.82
2023-04-20T02:35:27.497Z,6.50
2023-04-20T02:37:55.217Z,7.13
2023-04-20T02:40:22.106Z,5.75
2023-04-20T02:42:48.758Z,9.30
2023-04-20T02:45:16.032Z,5.60
2023-04-20T02:47:42.874Z,9.18
2023-04-20T02:50:10.193Z,6.20
2023-04-20T02:52:36.977Z,4.70
2023-04-20T02:55:03.950Z,8.13
2023-04-20T02:57:30.899Z,6.13
2023-04-20T02:59:57.645Z,8.38
2023-04-20T03:02:24.455Z,5.10
2023-04-20T03:04:51.496Z,3.78
2023-04-20T03:07:18.438Z,3.40
2023-04-20T03:09:45.285Z,4.25
2023-04-20T03:12:12.053Z,8.00
2023-04-20T03:14:38.758Z,7.57
2023-04-20T03:17:05.446Z,5.95
2023-04-20T03:19:32.174Z,8.23
2023-04-20T03:21:58.827Z,4.72
2023-04-20T03:24:25.575Z,4.13
2023-04-20T03:26:52.275Z,10.80
2023-04-20T03:29:19.321Z,8.65
2023-04-20T03:31:46.503Z,6.57
2023-04-20T03:34:13.223Z,7.45
2023-04-20T03:36:40.133Z,7.00
2023-04-20T03:39:07.353Z,14.20
2023-04-20T03:41:34.116Z,9.45
2023-04-20T03:44:00.818Z,5.28
2023-04-20T03:46:27.668Z,6.80
2023-04-20T03:48:59.313Z,6.07
2023-04-20T03:51:26.340Z,5.55
2023-04-20T03:53:53.106Z,6.55
2023-04-20T03:56:19.835Z,4.70
2023-04-20T03:58:46.650Z,6.30
2023-04-20T04:01:13.433Z,4.03
2023-04-20T04:03:40.625Z,2.95
2023-04-20T04:06:07.895Z,8.65
2023-04-20T04:08:34.558Z,4.80
2023-04-20T04:11:01.362Z,9.00
2023-04-20T04:13:28.219Z,6.60
2023-04-20T04:15:54.985Z,3.92
2023-04-20T04:18:21.987Z,6.88
2023-04-20T04:20:48.853Z,5.57
2023-04-20T04:23:15.649Z,6.95
2023-04-20T04:25:42.389Z,9.45
2023-04-20T04:28:09.288Z,7.45
2023-04-20T04:30:36.000Z,4.60
2023-04-20T04:33:04.908Z,6.32
2023-04-20T04:35:33.341Z,7.03
2023-04-20T04:38:00.992Z,5.32
2023-04-20T04:40:27.831Z,4.68
2023-04-20T04:42:55.554Z,6.38
2023-04-20T04:45:25.317Z,5.13
2023-04-20T04:47:53.902Z,6.60
2023-04-20T04:50:21.765Z,3.95
2023-04-20T04:52:48.843Z,7.50
2023-04-20T04:55:16.522Z,4.38
2023-04-20T04:57:43.518Z,3.60
2023-04-20T05:00:12.431Z,3.25
2023-04-20T05:02:39.712Z,9.52
2023-04-20T05:05:09.734Z,4.28
2023-04-20T05:07:39.993Z,4.07
2023-04-20T05:10:08.023Z,6.18
2023-04-20T05:12:34.818Z,7.75
2023-04-20T05:15:01.490Z,5.05
2023-04-20T05:17:28.397Z,3.70
2023-04-20T05:19:55.278Z,2.50
2023-04-20T05:22:22.000Z,3.95
2023-04-20T05:24:48.716Z,5.47
2023-04-20T05:27:15.485Z,5.15
2023-04-20T05:29:42.171Z,6.50
2023-04-20T05:32:08.928Z,4.22
2023-04-20T05:34:35.864Z,3.97
2023-04-20T05:37:05.314Z,13.82
2023-04-20T05:39:32.016Z,5.25
2023-04-20T05:41:58.661Z,3.42
2023-04-20T05:44:25.609Z,6.22
2023-04-20T05:46:52.558Z,3.10
2023-04-20T05:49:19.504Z,2.70
2023-04-20T05:51:47.481Z,2.92
2023-04-20T05:54:14.200Z,3.95
2023-04-20T05:56:40.985Z,4.43
2023-04-20T05:59:08.602Z,6.45
2023-04-20T06:01:35.512Z,5.15
2023-04-20T06:04:02.425Z,4.38
2023-04-20T06:06:29.598Z,7.85
2023-04-20T06:08:58.052Z,4.18
2023-04-20T06:11:24.782Z,2.45
2023-04-20T06:13:51.518Z,3.65
2023-04-20T06:16:18.288Z,7.00
2023-04-20T06:18:45.012Z,6.63
2023-04-20T06:21:12.043Z,8.02
2023-04-20T06:23:38.820Z,3.97
2023-04-20T06:26:08.672Z,4.32
2023-04-20T06:28:36.447Z,3.63
2023-04-20T06:31:04.590Z,4.95
2023-04-20T06:33:31.570Z,5.47
2023-04-20T06:35:58.305Z,8.35
2023-04-20T06:38:28.019Z,5.28
2023-04-20T06:40:54.766Z,5.05
2023-04-20T06:43:21.406Z,5.78
2023-04-20T06:45:48.081Z,3.58
2023-04-20T06:48:30.991Z,5.60
2023-04-20T06:50:58.669Z,5.88
2023-04-20T06:53:27.652Z,7.13
2023-04-20T06:55:55.571Z,3.70
2023-04-20T06:58:22.341Z,5.90
2023-04-20T07:00:49.076Z,8.10
2023-04-20T07:03:16.403Z,3.17
2023-04-20T07:05:43.321Z,8.82
2023-04-20T07:08:10.272Z,10.05
2023-04-20T07:10:37.688Z,4.03
2023-04-20T07:13:04.336Z,3.72
2023-04-20T07:15:31.212Z,6.55
2023-04-20T07:17:58.072Z,6.90
2023-04-20T07:20:24.991Z,5.97
2023-04-20T07:22:53.658Z,9.20
2023-04-20T07:25:20.489Z,6.28
2023-04-20T07:27:47.243Z,3.75
2023-04-20T07:30:14.376Z,5.97
2023-04-20T07:32:41.627Z,4.60
2023-04-20T07:35:10.117Z,5.10
2023-04-20T07:37:36.922Z,4.13
2023-04-20T07:40:06.609Z,4.35
2023-04-20T07:42:34.895Z,5.85
2023-04-20T07:45:01.739Z,4.30
2023-04-20T07:47:28.574Z,7.70
2023-04-20T07:49:55.693Z,5.57
2023-04-20T07:52:22.744Z,6.75
2023-04-20T07:54:49.482Z,7.32
2023-04-20T07:57:16.680Z,4.82
2023-04-20T07:59:46.017Z,8.30
2023-04-20T08:02:12.837Z,7.40
2023-04-20T08:04:39.933Z,6.82
2023-04-20T08:07:06.925Z,5.85
2023-04-20T08:09:33.650Z,7.97
2023-04-20T08:12:00.741Z,7.43
2023-04-20T08:14:27.729Z,5.38
2023-04-20T08:16:54.684Z,6.35
2023-04-20T08:19:21.742Z,5.07
2023-04-20T08:21:48.500Z,3.85
2023-04-20T08:24:15.613Z,4.18
2023-04-20T08:26:43.442Z,6.85
2023-04-20T08:29:10.239Z,6.65
2023-04-20T08:31:37.106Z,9.70
2023-04-20T08:34:03.956Z,7.25
2023-04-20T08:36:32.079Z,4.38
2023-04-20T08:39:12.236Z,6.72
2023-04-20T08:41:39.076Z,9.02
2023-04-20T08:44:07.557Z,6.07
2023-04-20T08:46:35.095Z,4.97
2023-04-20T08:49:05.083Z,4.72
2023-04-20T08:51:32.695Z,6.35
2023-04-20T08:54:06.700Z,4.88
2023-04-20T08:56:38.556Z,9.80
2023-04-20T08:59:08.689Z,6.70
2023-04-20T09:01:36.408Z,7.75
2023-04-20T09:04:14.860Z,8.65
2023-04-20T09:06:47.636Z,6.25
2023-04-20T09:09:14.399Z,6.43
2023-04-20T09:11:41.154Z,6.05
2023-04-20T09:14:12.633Z,4.93
2023-04-20T09:16:52.131Z,5.93
2023-04-20T09:19:27.661Z,7.10
2023-04-20T09:21:57.174Z,8.43
2023-04-20T09:24:31.399Z,4.35
2023-04-20T09:26:58.358Z,5.28
2023-04-20T09:29:28.373Z,4.13
2023-04-20T09:31:55.942Z,7.10
2023-04-20T09:34:24.124Z,8.05
2023-04-20T09:36:54.416Z,6.68
2023-04-20T09:39:23.639Z,6.63
2023-04-20T09:41:52.519Z,4.82
2023-04-20T09:44:20.066Z,5.25
2023-04-20T09:46:47.210Z,6.10
2023-04-20T09:49:14.924Z,5.05
2023-04-20T09:51:46.187Z,9.43
2023-04-20T09:54:14.044Z,7.72
2023-04-20T09:56:41.194Z,6.82
2023-04-20T09:59:08.381Z,6.32
2023-04-20T10:01:37.923Z,5.47
2023-04-20T10:04:09.694Z,7.40
2023-04-20T10:06:37.658Z,7.10
2023-04-20T10:09:07.078Z,5.35
2023-04-20T10:11:53.101Z,5.07
2023-04-20T10:14:26.314Z,5.97
2023-04-20T10:17:08.630Z,9.32
2023-04-20T10:19:42.329Z,6.90
2023-04-20T10:22:10.820Z,7.03
2023-04-20T10:24:38.375Z,6.18
2023-04-20T10:27:22.104Z,4.60
2023-04-20T10:29:49.065Z,5.15
2023-04-20T10:32:24.135Z,8.30
2023-04-20T10:35:05.276Z,6.82
2023-04-20T10:37:32.435Z,5.88
2023-04-20T10:39:59.578Z,7.75
2023-04-20T10:42:26.652Z,6.97
2023-04-20T10:44:54.605Z,6.65
2023-04-20T10:47:30.352Z,7.07
2023-04-20T10:50:26.609Z,7.32
2023-04-20T10:52:53.419Z,6.65
2023-04-20T10:55:25.497Z,7.75
2023-04-20T10:57:53.187Z,12.02
2023-04-20T11:00:26.275Z,7.15
2023-04-20T11:02:54.709Z,8.07
2023-04-20T11:05:25.257Z,7.43
2023-04-20T11:10:22.104Z,5.70
2023-04-20T11:12:49.108Z,9.73
2023-04-20T11:15:16.382Z,7.45
2023-04-20T11:17:43.199Z,5.95
2023-04-20T11:20:16.324Z,9.38
2023-04-20T11:22:43.977Z,6.85
2023-04-20T11:25:11.958Z,6.63
2023-04-20T11:27:39.496Z,8.75
2023-04-20T11:30:08.752Z,7.15
2023-04-20T11:32:36.319Z,6.63
2023-04-20T11:35:09.234Z,4.53
2023-04-20T11:37:51.231Z,3.90
2023-04-20T11:40:18.305Z,6.65
2023-04-20T11:42:46.236Z,5.95
2023-04-20T11:45:12.999Z,5.10
2023-04-20T11:47:40.968Z,6.25
2023-04-20T11:50:09.273Z,6.38
2023-04-20T11:52:36.111Z,5.18
2023-04-20T11:55:02.841Z,6.78
2023-04-20T11:57:29.556Z,4.82
2023-04-20T11:59:56.339Z,5.43
2023-04-20T12:02:23.335Z,6.05
2023-04-20T12:04:50.492Z,5.95
2023-04-20T12:07:17.350Z,5.55
2023-04-20T12:09:44.481Z,5.28
2023-04-20T12:12:11.229Z,5.05
2023-04-20T12:14:37.935Z,5.35
2023-04-20T12:17:05.158Z,6.25
2023-04-20T12:19:32.070Z,5.15
2023-04-20T12:21:58.927Z,5.13
2023-04-20T12:24:26.282Z,7.28
2023-04-20T12:26:52.988Z,6.03
2023-04-20T12:29:19.983Z,5.38
2023-04-20T12:31:47.022Z,5.47
2023-04-20T12:34:13.907Z,4.72
2023-04-20T12:36:40.916Z,5.22
2023-04-20T12:39:07.612Z,4.65
2023-04-20T12:41:34.581Z,4.68
2023-04-20T12:44:04.402Z,7.97
2023-04-20T12:46:32.966Z,6.20
2023-04-20T12:49:00.740Z,5.15
2023-04-20T12:51:28.267Z,5.03
2023-04-20T12:53:54.945Z,9.05
2023-04-20T12:56:21.673Z,4.13
2023-04-20T12:58:48.373Z,6.20
2023-04-20T13:01:15.273Z,8.60
2023-04-20T13:03:42.727Z,4.32
2023-04-20T13:06:13.642Z,6.80
2023-04-20T13:08:41.012Z,7.50
2023-04-20T13:11:07.871Z,4.85
2023-04-20T13:13:34.623Z,4.55
2023-04-20T13:16:01.350Z,4.47
2023-04-20T13:18:28.260Z,6.72
2023-04-20T13:20:55.024Z,5.95
2023-04-20T13:23:21.951Z,5.50
2023-04-20T13:25:48.675Z,7.18
2023-04-20T13:28:15.457Z,8.70
2023-04-20T13:30:42.144Z,5.60
2023-04-20T13:33:08.951Z,12.25
2023-04-20T13:35:36.332Z,5.78
2023-04-20T13:38:04.682Z,9.35
2023-04-20T13:40:31.448Z,9.05
2023-04-20T13:42:58.116Z,5.20
2023-04-20T13:45:25.350Z,6.35
2023-04-20T13:47:52.130Z,5.38
2023-04-20T13:50:19.024Z,6.25
2023-04-20T13:52:45.676Z,7.65
2023-04-20T13:55:12.487Z,7.10
2023-04-20T13:57:39.190Z,5.93
2023-04-20T14:00:07.356Z,5.88
2023-04-20T14:02:34.278Z,6.05
2023-04-20T14:05:01.233Z,12.63
2023-04-20T14:07:27.957Z,5.60
2023-04-20T14:09:56.553Z,4.18
2023-04-20T14:12:23.639Z,6.80
2023-04-20T14:14:50.482Z,6.50
2023-04-20T14:17:17.170Z,7.55
2023-04-20T14:19:43.804Z,5.40
2023-04-20T14:22:10.478Z,5.97
2023-04-20T14:24:37.148Z,5.55
2023-04-20T14:27:03.928Z,7.07
2023-04-20T14:29:30.719Z,5.97
2023-04-20T14:31:59.713Z,6.30
2023-04-20T14:34:26.564Z,5.95
2023-04-20T14:36:53.256Z,10.68
2023-04-20T14:39:20.982Z,7.55
2023-04-20T14:41:47.599Z,4.68
2023-04-20T14:44:14.559Z,5.57
2023-04-20T14:46:42.414Z,7.63
2023-04-20T14:49:10.506Z,7.15
2023-04-20T14:51:37.249Z,5.50
2023-04-20T14:54:04.052Z,6.60
2023-04-20T14:56:30.879Z,7.45
2023-04-20T14:58:59.566Z,9.45
2023-04-20T15:01:27.583Z,7.45
2023-04-20T15:03:54.655Z,8.95
2023-04-20T15:06:22.830Z,7.28
2023-04-20T15:08:49.624Z,5.82
2023-04-20T15:11:16.304Z,7.15
2023-04-20T15:13:43.720Z,8.20
2023-04-20T15:16:10.555Z,9.00
2023-04-20T15:18:37.365Z,11.48
2023-04-20T15:21:04.726Z,6.80
2023-04-20T15:23:31.549Z,12.23
2023-04-20T15:25:58.216Z,5.88
2023-04-20T15:28:24.979Z,6.63
2023-04-20T15:30:51.910Z,8.95
2023-04-20T15:33:18.695Z,8.27
2023-04-20T15:35:45.644Z,10.25
2023-04-20T15:38:12.300Z,8.90
2023-04-20T15:40:39.253Z,6.97
2023-04-20T15:43:06.480Z,6.50
2023-04-20T15:45:34.393Z,6.65
2023-04-20T15:48:01.231Z,6.70
2023-04-20T15:50:28.164Z,6.07
2023-04-20T15:52:54.894Z,5.13
2023-04-20T15:55:22.886Z,6.75
2023-04-20T15:57:49.608Z,8.50
2023-04-20T16:00:16.657Z,6.75
2023-04-20T16:02:43.589Z,6.75
2023-04-20T16:05:10.416Z,7.15
2023-04-20T16:07:37.303Z,7.72
2023-04-20T16:10:06.619Z,7.50
2023-04-20T16:12:33.369Z,6.55
2023-04-20T16:15:01.634Z,9.10
2023-04-20T16:17:28.402Z,7.75
2023-04-20T16:19:55.115Z,7.20
2023-04-20T16:22:21.778Z,9.45
2023-04-20T16:24:48.589Z,7.00
2023-04-20T16:27:15.712Z,6.85
2023-04-20T16:29:42.456Z,7.05
2023-04-20T16:32:10.374Z,6.10
2023-04-20T16:34:37.173Z,8.25
2023-04-20T16:37:03.914Z,9.38
2023-04-20T16:39:30.627Z,7.03
2023-04-20T16:41:58.438Z,11.00
2023-04-20T16:44:25.612Z,6.10
2023-04-20T16:46:52.474Z,6.70
2023-04-20T16:49:19.225Z,9.07
2023-04-20T16:51:46.003Z,7.68
2023-04-20T16:54:12.863Z,9.20
2023-04-20T16:56:40.675Z,7.40
2023-04-20T16:59:07.995Z,7.93
2023-04-20T17:01:34.891Z,6.90
2023-04-20T17:04:01.929Z,8.27
2023-04-20T17:06:29.022Z,6.85
2023-04-20T17:08:57.535Z,8.25
2023-04-20T17:11:24.340Z,6.55
2023-04-20T17:13:51.157Z,7.15
2023-04-20T17:16:18.072Z,6.75
2023-04-20T17:18:46.252Z,7.05
2023-04-20T17:21:12.979Z,5.85
2023-04-20T17:23:41.225Z,6.10
2023-04-20T17:26:08.100Z,7.88
2023-04-20T17:28:34.814Z,8.13
2023-04-20T17:31:01.527Z,8.00
2023-04-20T17:33:28.259Z,7.22
2023-04-20T17:35:56.889Z,8.68
2023-04-20T17:38:23.913Z,8.73
2023-04-20T17:40:50.623Z,5.70
2023-04-20T17:43:17.411Z,6.40
2023-04-20T17:45:44.199Z,7.80
2023-04-20T17:48:11.993Z,7.57
2023-04-20T17:50:38.648Z,8.65
2023-04-20T17:53:06.970Z,9.75
2023-04-20T17:55:34.786Z,10.73
2023-04-20T17:58:01.721Z,9.55
2023-04-20T18:00:28.402Z,12.35
2023-04-20T18:02:55.971Z,15.88
2023-04-20T18:05:22.818Z,12.15
2023-04-20T18:07:49.451Z,11.32
2023-04-20T18:10:16.259Z,9.25
2023-04-20T18:12:43.539Z,14.43
2023-04-20T18:15:11.571Z,6.97
2023-04-20T18:17:38.892Z,6.32
2023-04-20T18:20:06.304Z,8.05
2023-04-20T18:22:33.459Z,10.45
2023-04-20T18:25:00.254Z,8.07
2023-04-20T18:27:27.074Z,8.48
2023-04-20T18:29:59.571Z,15.75
2023-04-20T18:32:27.584Z,11.57
2023-04-20T18:34:54.626Z,10.98
2023-04-20T18:37:21.316Z,9.05
2023-04-20T18:39:48.096Z,7.38
2023-04-20T18:42:14.887Z,9.80
2023-04-20T18:44:44.684Z,12.27
2023-04-20T18:47:11.412Z,21.70
2023-04-20T18:49:38.082Z,12.27
2023-04-20T18:52:04.995Z,11.38
2023-04-20T18:54:31.739Z,16.85
2023-04-20T18:56:58.420Z,14.27
2023-04-20T18:59:25.320Z,9.75
2023-04-20T19:01:53.183Z,8.60
2023-04-20T19:04:21.047Z,12.07
2023-04-20T19:06:48.297Z,10.25
2023-04-20T19:09:15.120Z,9.23
2023-04-20T19:11:42.827Z,11.50
2023-04-20T19:14:11.255Z,10.55
2023-04-20T19:16:38.120Z,9.90
2023-04-20T19:19:05.006Z,9.60
2023-04-20T19:21:32.703Z,7.95
2023-04-20T19:23:59.392Z,7.55
2023-04-20T19:26:26.337Z,9.13
2023-04-20T19:28:53.676Z,9.73
2023-04-20T19:31:20.670Z,12.60
2023-04-20T19:33:47.646Z,11.73
2023-04-20T19:36:14.348Z,9.02
2023-04-20T19:38:41.084Z,12.90
2023-04-20T19:41:07.910Z,9.93
2023-04-20T19:43:36.182Z,9.65
2023-04-20T19:46:03.189Z,7.28
2023-04-20T19:48:30.011Z,9.07
2023-04-20T19:50:57.693Z,9.93
2023-04-20T19:53:25.926Z,7.88
2023-04-20T19:55:52.704Z,6.45
2023-04-20T19:58:19.677Z,8.23
2023-04-20T20:00:50.558Z,9.07
2023-04-20T20:03:17.423Z,8.55
2023-04-20T20:05:44.846Z,8.80
2023-04-20T20:08:11.669Z,10.27
2023-04-20T20:10:39.663Z,7.93
2023-04-20T20:13:06.365Z,9.43
2023-04-20T20:15:33.315Z,11.50
2023-04-20T20:18:00.058Z,12.52
2023-04-20T20:20:33.022Z,7.57
2023-04-20T20:23:00.492Z,7.45
2023-04-20T20:25:27.423Z,9.93
2023-04-20T20:27:54.280Z,9.27
2023-04-20T20:30:21.194Z,11.00
2023-04-20T20:32:48.110Z,10.82
2023-04-20T20:35:15.014Z,8.43
2023-04-20T20:37:42.063Z,11.95
2023-04-20T20:40:15.080Z,9.95
2023-04-20T20:42:42.603Z,9.43
2023-04-20T20:45:12.353Z,7.82
2023-04-20T20:47:40.992Z,10.60
2023-04-20T20:50:09.179Z,9.48
2023-04-20T20:52:35.990Z,12.07
2023-04-20T20:55:03.020Z,10.63
2023-04-20T20:57:30.259Z,10.63
2023-04-20T20:59:56.946Z,13.05
2023-04-20T21:02:23.821Z,10.63
2023-04-20T21:04:50.579Z,12.52
2023-04-20T21:07:17.228Z,12.30
2023-04-20T21:09:44.054Z,11.43
2023-04-20T21:12:10.898Z,13.88
2023-04-20T21:14:37.659Z,12.57
2023-04-20T21:17:04.963Z,14.43
2023-04-20T21:19:32.211Z,13.40
2023-04-20T21:21:59.035Z,11.55
2023-04-20T21:24:25.851Z,15.40
2023-04-20T21:26:52.732Z,13.57
2023-04-20T21:29:20.018Z,14.48
2023-04-20T21:31:47.249Z,14.07
2023-04-20T21:34:14.079Z,13.93
2023-04-20T21:36:40.770Z,15.27
2023-04-20T21:39:07.524Z,16.00
2023-04-20T21:41:34.240Z,15.85
2023-04-20T21:44:02.492Z,17.67
2023-04-20T21:46:29.573Z,13.05
2023-04-20T21:48:56.428Z,22.58
2023-04-20T21:51:23.180Z,16.67
2023-04-20T21:53:50.033Z,15.90
2023-04-20T21:56:16.734Z,17.63
2023-04-20T21:58:43.391Z,21.45
2023-04-20T22:01:10.201Z,14.88
2023-04-20T22:03:37.891Z,13.90
2023-04-20T22:06:05.214Z,18.23
2023-04-20T22:08:32.076Z,20.23
2023-04-20T22:10:58.783Z,14.50
2023-04-20T22:13:25.787Z,15.13
2023-04-20T22:15:52.757Z,13.20
2023-04-20T22:18:19.726Z,14.30
2023-04-20T22:20:46.606Z,13.68
2023-04-20T22:23:13.314Z,11.93
2023-04-20T22:25:40.806Z,14.05
2023-04-20T22:28:07.582Z,13.45
2023-04-20T22:30:35.645Z,15.70
2023-04-20T22:33:03.856Z,13.98
2023-04-20T22:35:30.770Z,13.38
2023-04-20T22:37:57.512Z,12.10
2023-04-20T22:40:24.308Z,15.07
2023-04-20T22:42:51.117Z,16.55
2023-04-20T22:45:19.952Z,14.10
2023-04-20T22:47:47.259Z,13.73
2023-04-20T22:50:14.525Z,18.08
2023-04-20T22:52:41.519Z,15.07
2023-04-20T22:55:09.405Z,15.63
2023-04-20T22:57:36.579Z,14.73
2023-04-20T23:00:10.318Z,15.20
2023-04-20T23:02:37.899Z,14.40
2023-04-20T23:05:05.682Z,20.52
2023-04-20T23:07:32.992Z,20.63
2023-04-20T23:10:00.176Z,21.20
2023-04-20T23:12:29.363Z,14.68
2023-04-20T23:15:00.433Z,19.42
2023-04-20T23:17:28.267Z,16.92
2023-04-20T23:19:55.456Z,20.35
2023-04-20T23:22:23.368Z,18.67
2023-04-20T23:24:50.562Z,19.40
2023-04-20T23:27:17.292Z,14.85
2023-04-20T23:29:44.043Z,19.33
2023-04-20T23:32:10.844Z,15.40
2023-04-20T23:34:37.564Z,16.73
2023-04-20T23:37:04.320Z,18.88
2023-04-20T23:39:31.104Z,18.88
2023-04-20T23:41:57.855Z,20.15
2023-04-20T23:44:24.659Z,15.50
2023-04-20T23:46:51.426Z,14.10
2023-04-20T23:49:18.450Z,19.33
2023-04-20T23:51:45.448Z,15.15
2023-04-20T23:54:12.139Z,15.95
2023-04-20T23:56:38.917Z,17.85
2023-04-20T23:59:06.668Z,15.88
